Time;durP1;ratioP1;P1;durP2;ratioP2;P2;SDS_P1;SDS_P2;PMS_P1;PMS_P2;Temp;Humidity;BMP_temperature;BMP_pressure;BME280_temperature;BME280_humidity;BME280_pressure;Samples;Min_cycle;Max_cycle;Signal;HPM_P1;HPM_P2
2023/03/15 00:01:20;;;;;;;6.82;4.13;;;7.10;66.40;;;;;;5010390;28;20045;-50
2023/03/15 00:03:48;;;;;;;10.43;4.50;;;7.20;66.60;;;;;;5027499;28;20424;-49
2023/03/15 00:06:22;;;;;;;11.23;4.90;;;7.10;66.50;;;;;;5030940;28;20080;-46
2023/03/15 00:08:51;;;;;;;10.65;4.65;;;7.20;66.80;;;;;;5025265;28;20046;-47
2023/03/15 00:11:18;;;;;;;9.18;5.13;;;7.20;66.80;;;;;;5007898;28;20061;-46
2023/03/15 00:13:47;;;;;;;8.02;4.60;;;7.20;67.00;;;;;;5030911;28;20064;-51
2023/03/15 00:16:17;;;;;;;15.60;4.90;;;7.20;67.20;;;;;;5030636;28;20039;-45
2023/03/15 00:18:47;;;;;;;11.07;4.53;;;7.20;67.40;;;;;;5012581;28;20116;-50
2023/03/15 00:21:16;;;;;;;9.43;4.35;;;7.30;67.50;;;;;;5011590;28;20066;-50
2023/03/15 00:23:45;;;;;;;9.48;4.55;;;7.30;67.50;;;;;;5012531;28;20038;-49
2023/03/15 00:26:17;;;;;;;10.20;5.00;;;7.30;67.50;;;;;;5030445;28;20048;-49
2023/03/15 00:28:43;;;;;;;12.73;4.85;;;7.40;67.60;;;;;;5022958;28;20042;-50
2023/03/15 00:31:17;;;;;;;8.13;4.82;;;7.30;67.50;;;;;;5017739;28;20096;-48
2023/03/15 00:33:47;;;;;;;8.23;4.72;;;7.40;67.30;;;;;;5013022;28;20498;-49
2023/03/15 00:36:18;;;;;;;9.95;5.03;;;7.40;67.30;;;;;;5030382;28;20091;-47
2023/03/15 00:38:54;;;;;;;8.55;5.32;;;7.40;67.30;;;;;;4992869;28;20525;-48
2023/03/15 00:41:22;;;;;;;10.15;4.45;;;7.40;67.40;;;;;;5028677;28;20399;-47
2023/03/15 00:43:51;;;;;;;8.90;5.28;;;7.40;67.30;;;;;;5029565;28;20168;-48
2023/03/15 00:46:24;;;;;;;7.00;4.78;;;7.40;67.30;;;;;;5029917;28;20041;-47
2023/03/15 00:48:51;;;;;;;6.30;4.57;;;7.40;67.30;;;;;;5009496;28;20037;-51
2023/03/15 00:51:22;;;;;;;6.95;3.88;;;7.40;67.40;;;;;;5005180;28;20050;-48
2023/03/15 00:53:55;;;;;;;7.43;4.27;;;7.30;67.50;;;;;;5010889;28;21489;-49
2023/03/15 00:56:24;;;;;;;7.13;4.43;;;7.30;67.60;;;;;;5017379;28;20046;-50
2023/03/15 00:58:58;;;;;;;6.63;4.53;;;7.30;67.50;;;;;;5019877;28;20145;-51
2023/03/15 01:01:29;;;;;;;8.55;4.40;;;7.30;67.50;;;;;;5006152;28;20416;-51
2023/03/15 01:04:00;;;;;;;7.03;4.25;;;7.30;67.70;;;;;;5007395;28;20057;-52
2023/03/15 01:06:28;;;;;;;9.10;5.13;;;7.30;67.90;;;;;;5018155;28;20038;-46
2023/03/15 01:09:02;;;;;;;9.02;5.20;;;7.30;67.90;;;;;;4988293;28;20128;-50
2023/03/15 01:11:29;;;;;;;9.02;4.55;;;7.30;68.00;;;;;;5007499;28;20042;-48
2023/03/15 01:14:00;;;;;;;7.22;4.90;;;7.30;67.90;;;;;;5015649;28;20052;-47
2023/03/15 01:16:27;;;;;;;9.75;5.13;;;7.30;67.90;;;;;;5029547;28;20124;-44
2023/03/15 01:18:55;;;;;;;7.40;5.55;;;7.30;67.90;;;;;;4991776;28;20049;-51
2023/03/15 01:21:23;;;;;;;7.75;4.35;;;7.30;68.00;;;;;;5011142;28;20127;-48
2023/03/15 01:23:50;;;;;;;5.40;4.75;;;7.30;68.10;;;;;;5020103;28;20502;-50
2023/03/15 01:26:20;;;;;;;6.25;4.35;;;7.30;68.20;;;;;;5029452;28;20083;-47
2023/03/15 01:28:50;;;;;;;6.68;4.00;;;7.30;68.10;;;;;;5021938;28;20026;-50
2023/03/15 01:31:25;;;;;;;5.95;3.00;;;7.30;68.00;;;;;;5005453;28;20045;-46
2023/03/15 01:33:52;;;;;;;2.90;2.60;;;7.20;68.00;;;;;;5029050;28;20053;-49
2023/03/15 01:36:20;;;;;;;2.78;2.22;;;7.20;68.00;;;;;;5007546;28;20535;-49
2023/03/15 01:38:48;;;;;;;4.38;2.05;;;7.20;68.00;;;;;;4992647;28;20046;-48
2023/03/15 01:41:18;;;;;;;2.42;1.90;;;7.10;68.00;;;;;;5012272;28;20049;-47
2023/03/15 01:43:48;;;;;;;4.72;2.53;;;7.10;68.00;;;;;;5012131;28;20213;-49
2023/03/15 01:46:19;;;;;;;4.05;2.28;;;7.10;68.20;;;;;;4997455;28;20642;-51
2023/03/15 01:49:16;;;;;;;2.83;2.22;;;7.00;68.30;;;;;;5009528;28;20545;-48
2023/03/15 01:52:06;;;;;;;1.85;1.67;;;7.00;68.70;;;;;;4994079;28;20042;-45
2023/03/15 01:54:55;;;;;;;3.30;1.80;;;7.00;68.40;;;;;;5010877;28;20501;-46
2023/03/15 01:57:45;;;;;;;3.22;2.00;;;6.90;68.20;;;;;;5003520;28;20497;-47
2023/03/15 02:00:17;;;;;;;4.78;2.25;;;6.80;68.50;;;;;;5000267;28;20045;-48
2023/03/15 02:03:13;;;;;;;3.00;2.47;;;6.80;68.40;;;;;;5015934;28;20041;-47
2023/03/15 02:05:46;;;;;;;2.88;2.58;;;6.80;68.70;;;;;;5002900;28;20084;-49
2023/03/15 02:08:31;;;;;;;3.05;2.70;;;6.80;68.70;;;;;;4996651;28;20054;-45
2023/03/15 02:11:02;;;;;;;6.22;3.22;;;6.70;68.70;;;;;;5017742;28;20045;-45
2023/03/15 02:13:35;;;;;;;4.03;2.92;;;6.70;68.90;;;;;;5028714;28;20041;-47
2023/03/15 02:16:09;;;;;;;4.90;3.22;;;6.70;69.20;;;;;;5028440;28;20047;-49
2023/03/15 02:18:55;;;;;;;4.22;3.10;;;6.70;69.30;;;;;;4995874;28;20544;-51
2023/03/15 02:21:56;;;;;;;4.80;3.63;;;6.70;69.20;;;;;;4992186;28;20048;-48
2023/03/15 02:24:42;;;;;;;3.25;2.90;;;6.70;69.80;;;;;;5001783;28;20070;-47
2023/03/15 02:27:09;;;;;;;7.47;3.25;;;6.70;69.60;;;;;;4985398;28;20069;-47
2023/03/15 02:29:41;;;;;;;4.20;3.20;;;6.70;69.30;;;;;;4985851;28;20140;-47
2023/03/15 02:32:13;;;;;;;3.88;3.40;;;6.70;69.50;;;;;;5005600;28;20046;-51
2023/03/15 02:34:40;;;;;;;3.58;3.28;;;6.70;69.50;;;;;;5005891;28;20060;-50
2023/03/15 02:37:13;;;;;;;3.55;3.25;;;6.70;69.50;;;;;;5020452;28;20503;-49
2023/03/15 02:39:39;;;;;;;4.78;3.35;;;6.60;69.50;;;;;;4990890;28;20494;-46
2023/03/15 02:42:07;;;;;;;3.65;2.80;;;6.60;69.40;;;;;;5023156;28;20058;-51
2023/03/15 02:44:41;;;;;;;4.45;3.70;;;6.60;69.50;;;;;;5005701;28;20107;-47
2023/03/15 02:47:20;;;;;;;3.95;3.53;;;6.60;69.50;;;;;;5011419;28;20161;-48
2023/03/15 02:49:51;;;;;;;;;;;6.60;69.50;;;;;;5010701;28;20132;-45
2023/03/15 02:52:21;;;;;;;4.72;3.00;;;6.70;70.40;;;;;;5015477;28;19921;-46
2023/03/15 02:54:49;;;;;;;5.20;3.38;;;6.60;69.10;;;;;;5004207;28;20073;-46
2023/03/15 02:57:18;;;;;;;4.68;3.25;;;6.60;69.20;;;;;;5008764;28;20044;-51
2023/03/15 02:59:49;;;;;;;3.53;3.17;;;6.60;69.50;;;;;;5030873;28;20041;-49
2023/03/15 03:02:20;;;;;;;3.70;2.95;;;6.60;69.50;;;;;;5009466;28;20152;-48
2023/03/15 03:04:53;;;;;;;3.72;3.38;;;6.60;69.70;;;;;;5012570;28;20076;-48
2023/03/15 03:07:26;;;;;;;5.50;3.97;;;6.50;69.70;;;;;;5014576;28;20513;-47
2023/03/15 03:09:58;;;;;;;5.10;3.42;;;6.50;69.80;;;;;;4996848;28;20037;-48
2023/03/15 03:12:31;;;;;;;4.20;3.38;;;6.50;69.80;;;;;;5013561;28;20084;-51
2023/03/15 03:15:02;;;;;;;4.60;3.80;;;6.50;69.90;;;;;;5031925;28;20563;-48
2023/03/15 03:17:30;;;;;;;3.50;3.20;;;6.50;69.70;;;;;;5014626;28;20068;-47
2023/03/15 03:19:58;;;;;;;4.20;3.80;;;6.50;69.80;;;;;;5014560;28;20088;-45
2023/03/15 03:22:34;;;;;;;4.47;4.07;;;6.50;69.80;;;;;;4998391;28;20649;-45
2023/03/15 03:25:01;;;;;;;3.80;3.42;;;6.50;69.80;;;;;;5014045;28;20080;-47
2023/03/15 03:27:36;;;;;;;6.85;4.00;;;6.50;69.80;;;;;;5013836;28;20050;-49
2023/03/15 03:30:11;;;;;;;4.13;3.22;;;6.50;69.80;;;;;;5004287;28;20056;-49
2023/03/15 03:32:44;;;;;;;4.43;3.80;;;6.50;70.00;;;;;;5003162;28;20137;-48
2023/03/15 03:35:13;;;;;;;6.30;3.90;;;6.50;70.20;;;;;;5014429;28;20041;-47
2023/03/15 03:37:42;;;;;;;4.22;3.83;;;6.50;70.70;;;;;;4995552;28;20449;-46
2023/03/15 03:40:19;;;;;;;5.68;5.07;;;6.50;69.90;;;;;;5009301;28;20080;-48
2023/03/15 03:42:49;;;;;;;6.63;5.95;;;6.50;69.80;;;;;;5013533;28;20054;-46
2023/03/15 03:45:20;;;;;;;7.57;6.78;;;6.40;69.70;;;;;;5025543;28;20037;-46
2023/03/15 03:47:50;;;;;;;10.68;8.20;;;6.40;69.70;;;;;;5015358;28;20034;-51
2023/03/15 03:50:17;;;;;;;9.23;7.97;;;6.40;69.60;;;;;;5014130;28;20040;-50
2023/03/15 03:52:44;;;;;;;7.13;6.05;;;6.30;69.60;;;;;;5006756;28;20499;-47
2023/03/15 03:55:23;;;;;;;6.10;5.47;;;6.30;69.40;;;;;;5014181;28;20122;-48
2023/03/15 03:57:53;;;;;;;6.03;4.47;;;6.30;69.50;;;;;;5021514;28;20033;-51
2023/03/15 04:00:43;;;;;;;4.50;4.07;;;6.20;69.50;;;;;;5005254;28;20499;-47
2023/03/15 04:03:13;;;;;;;5.35;4.30;;;6.10;69.60;;;;;;4986827;28;20042;-48
2023/03/15 04:05:51;;;;;;;3.95;3.55;;;6.10;69.60;;;;;;5001883;28;20045;-47
2023/03/15 04:08:23;;;;;;;4.10;3.70;;;6.10;69.90;;;;;;5008010;28;20518;-47
2023/03/15 04:10:56;;;;;;;4.28;3.78;;;6.00;70.00;;;;;;4998454;28;20061;-47
2023/03/15 04:13:28;;;;;;;4.32;3.92;;;6.00;70.20;;;;;;5010526;28;20046;-48
2023/03/15 04:16:00;;;;;;;4.57;4.00;;;6.00;70.10;;;;;;4990988;28;20161;-44
2023/03/15 04:18:32;;;;;;;5.15;4.65;;;6.00;70.10;;;;;;5004202;28;20114;-50
2023/03/15 04:21:01;;;;;;;5.03;4.57;;;5.90;70.10;;;;;;5010086;28;20052;-46
2023/03/15 04:23:29;;;;;;;6.43;5.75;;;5.90;70.10;;;;;;4994074;28;20132;-46
2023/03/15 04:26:13;;;;;;;8.32;7.40;;;5.80;70.10;;;;;;4991850;28;20065;-48
2023/03/15 04:29:11;;;;;;;9.73;7.80;;;5.80;70.40;;;;;;4935836;28;20057;-48
2023/03/15 04:32:10;;;;;;;9.88;8.32;;;5.80;70.60;;;;;;5012146;28;20049;-47
2023/03/15 04:34:55;;;;;;;12.32;9.80;;;5.80;70.90;;;;;;4995673;28;20515;-49
2023/03/15 04:37:31;;;;;;;11.73;9.75;;;5.80;71.10;;;;;;5019870;28;20413;-50
2023/03/15 04:40:22;;;;;;;16.08;12.70;;;5.80;71.00;;;;;;5002317;28;20087;-44
2023/03/15 04:43:19;;;;;;;18.88;14.63;;;5.80;70.80;;;;;;5000334;28;20053;-49
2023/03/15 04:46:00;;;;;;;18.75;14.13;;;5.70;70.70;;;;;;5010472;28;20099;-48
2023/03/15 04:48:50;;;;;;;14.77;12.10;;;5.70;70.80;;;;;;5023123;28;20052;-48
2023/03/15 04:51:33;;;;;;;11.95;9.27;;;5.70;71.00;;;;;;4992505;28;20046;-46
2023/03/15 04:54:26;;;;;;;9.38;8.23;;;5.70;71.10;;;;;;5010437;28;20079;-46
2023/03/15 04:57:03;;;;;;;8.60;7.55;;;5.70;71.30;;;;;;5025595;28;20064;-46
2023/03/15 04:59:45;;;;;;;7.32;6.35;;;5.70;71.60;;;;;;4996592;28;20539;-47
2023/03/15 05:02:38;;;;;;;7.35;5.68;;;5.70;71.90;;;;;;5008125;28;20045;-46
2023/03/15 05:05:28;;;;;;;6.70;5.97;;;5.70;71.90;;;;;;4999937;28;20033;-50
2023/03/15 05:08:16;;;;;;;6.28;5.47;;;5.80;72.00;;;;;;5020321;28;20033;-48
2023/03/15 05:11:05;;;;;;;7.03;6.32;;;5.80;72.00;;;;;;5025328;28;20448;-47
2023/03/15 05:13:52;;;;;;;7.10;6.40;;;5.80;72.20;;;;;;5028117;28;20415;-47
2023/03/15 05:16:42;;;;;;;6.78;6.05;;;5.90;72.60;;;;;;5016103;28;20049;-47
2023/03/15 05:19:38;;;;;;;8.38;7.25;;;5.90;72.40;;;;;;4981765;28;20042;-47
2023/03/15 05:22:24;;;;;;;10.13;7.30;;;6.00;72.30;;;;;;5003905;28;20409;-47
2023/03/15 05:25:10;;;;;;;11.30;8.52;;;6.10;72.30;;;;;;5014907;28;20570;-47
2023/03/15 05:27:57;;;;;;;11.45;9.38;;;6.00;72.20;;;;;;5018352;28;20132;-51
2023/03/15 05:30:51;;;;;;;12.82;9.57;;;6.10;72.10;;;;;;5008730;28;20041;-48
2023/03/15 05:33:45;;;;;;;12.63;10.15;;;6.10;72.00;;;;;;5028149;28;20490;-48
2023/03/15 05:36:40;;;;;;;15.27;11.57;;;6.10;71.90;;;;;;4987814;28;20092;-49
2023/03/15 05:39:33;;;;;;;12.93;11.40;;;6.10;71.90;;;;;;5012888;28;20045;-48
2023/03/15 05:42:12;;;;;;;14.18;11.75;;;6.20;71.90;;;;;;5028474;28;20128;-47
2023/03/15 05:44:57;;;;;;;16.75;12.38;;;6.20;71.90;;;;;;5006754;28;20050;-49
2023/03/15 05:47:56;;;;;;;14.45;12.43;;;6.20;72.00;;;;;;5009137;28;20401;-50
2023/03/15 05:51:03;;;;;;;14.35;11.95;;;6.30;72.00;;;;;;4989032;28;20134;-48
2023/03/15 05:54:05;;;;;;;13.25;11.23;;;6.30;71.90;;;;;;5024262;28;20052;-48
2023/03/15 05:56:31;;;;;;;13.27;11.77;;;6.30;71.90;;;;;;5029175;28;20050;-47
2023/03/15 05:59:29;;;;;;;12.82;11.50;;;6.30;72.10;;;;;;5007144;28;20111;-49
2023/03/15 06:02:15;;;;;;;14.80;11.40;;;6.40;72.10;;;;;;5006939;28;20055;-46
2023/03/15 06:04:57;;;;;;;13.48;10.68;;;6.40;72.00;;;;;;5001294;28;20042;-49
2023/03/15 06:07:26;;;;;;;11.57;10.38;;;6.40;71.90;;;;;;4998575;28;20473;-47
2023/03/15 06:10:00;;;;;;;11.38;9.98;;;6.40;71.90;;;;;;4995339;28;20469;-49
2023/03/15 06:12:29;;;;;;;10.68;9.55;;;6.40;71.80;;;;;;5005884;28;20044;-49
2023/03/15 06:14:58;;;;;;;10.40;9.27;;;6.50;71.90;;;;;;5007797;28;20041;-51
2023/03/15 06:17:27;;;;;;;11.25;9.98;;;6.40;71.80;;;;;;5011060;28;20042;-46
2023/03/15 06:19:57;;;;;;;11.18;10.00;;;6.40;71.90;;;;;;5010777;28;20038;-44
2023/03/15 06:22:26;;;;;;;12.30;9.85;;;6.50;71.90;;;;;;4993204;28;20049;-46
2023/03/15 06:25:02;;;;;;;13.50;10.43;;;6.50;72.00;;;;;;5009601;28;20045;-50
2023/03/15 06:27:28;;;;;;;13.00;11.10;;;6.50;72.00;;;;;;5017030;28;20053;-47
2023/03/15 06:29:57;;;;;;;12.65;9.85;;;6.50;72.10;;;;;;4996553;28;20077;-51
2023/03/15 06:32:26;;;;;;;13.50;11.32;;;6.50;72.10;;;;;;5008963;28;20041;-49
2023/03/15 06:34:55;;;;;;;14.90;11.75;;;6.50;72.10;;;;;;5026515;28;20042;-50
2023/03/15 06:37:21;;;;;;;13.98;11.35;;;6.50;72.20;;;;;;5011651;28;20042;-48
2023/03/15 06:40:11;;;;;;;12.55;10.80;;;6.60;72.20;;;;;;5011912;28;20056;-48
2023/03/15 06:42:40;;;;;;;14.05;11.90;;;6.60;72.80;;;;;;5020201;28;20521;-46
2023/03/15 06:45:09;;;;;;;13.40;11.75;;;6.60;71.90;;;;;;5027568;28;20158;-45
2023/03/15 06:47:37;;;;;;;14.27;10.48;;;6.60;72.00;;;;;;4999839;28;20057;-48
2023/03/15 06:50:09;;;;;;;14.93;12.38;;;6.60;72.10;;;;;;4996043;28;20045;-47
2023/03/15 06:52:39;;;;;;;15.73;12.43;;;6.60;72.00;;;;;;5002192;28;20129;-48
2023/03/15 06:55:09;;;;;;;15.00;11.57;;;6.60;72.10;;;;;;5015176;28;20049;-47
2023/03/15 06:57:41;;;;;;;13.48;12.18;;;6.60;72.20;;;;;;4997543;28;20056;-48
2023/03/15 07:00:19;;;;;;;14.88;12.48;;;6.60;72.30;;;;;;5005978;28;20046;-49
2023/03/15 07:02:48;;;;;;;15.00;12.73;;;6.60;72.40;;;;;;5005456;28;20045;-48
2023/03/15 07:05:15;;;;;;;16.88;12.95;;;6.70;72.40;;;;;;5017292;28;20228;-51
2023/03/15 07:07:46;;;;;;;16.35;13.20;;;6.70;72.20;;;;;;5019559;28;20141;-47
2023/03/15 07:10:17;;;;;;;18.88;13.25;;;6.80;72.40;;;;;;5017178;28;20038;-45
2023/03/15 07:12:46;;;;;;;15.98;13.00;;;6.80;72.30;;;;;;5013648;28;20053;-46
2023/03/15 07:15:15;;;;;;;17.40;12.57;;;6.80;72.30;;;;;;5026831;28;20099;-48
2023/03/15 07:17:45;;;;;;;17.55;12.90;;;6.80;72.30;;;;;;5027516;28;20124;-51
2023/03/15 07:20:11;;;;;;;18.60;13.48;;;6.90;72.20;;;;;;5008379;28;20050;-49
2023/03/15 07:22:44;;;;;;;16.73;12.40;;;6.90;72.10;;;;;;5002805;28;20042;-49
2023/03/15 07:25:13;;;;;;;16.33;12.25;;;6.90;71.90;;;;;;5003099;28;20070;-48
2023/03/15 07:27:45;;;;;;;15.23;12.50;;;6.90;71.80;;;;;;5004540;28;20565;-45
2023/03/15 07:30:12;;;;;;;14.95;11.65;;;6.90;71.50;;;;;;5004974;28;20042;-50
2023/03/15 07:32:41;;;;;;;15.70;11.43;;;6.90;71.40;;;;;;5001017;28;20045;-49
2023/03/15 07:35:12;;;;;;;15.75;11.77;;;6.90;71.60;;;;;;5005215;28;20092;-47
2023/03/15 07:37:41;;;;;;;13.00;10.63;;;6.90;71.90;;;;;;5003308;28;20446;-51
2023/03/15 07:40:14;;;;;;;12.80;10.63;;;6.90;72.00;;;;;;5007269;28;20037;-50
2023/03/15 07:42:44;;;;;;;16.05;12.55;;;6.90;72.00;;;;;;5006879;28;20049;-50
2023/03/15 07:45:12;;;;;;;14.30;11.57;;;6.90;71.90;;;;;;4990868;28;20053;-49
2023/03/15 07:47:39;;;;;;;14.80;11.95;;;7.00;72.00;;;;;;5003996;28;20284;-48
2023/03/15 07:50:07;;;;;;;13.40;11.30;;;6.90;72.30;;;;;;5006094;28;20038;-47
2023/03/15 07:52:36;;;;;;;15.75;12.38;;;7.00;72.60;;;;;;5006202;28;20044;-50
2023/03/15 07:55:03;;;;;;;13.15;10.48;;;7.10;72.70;;;;;;5007326;28;20049;-48
2023/03/15 07:57:34;;;;;;;16.20;11.50;;;7.10;72.30;;;;;;5004380;28;20038;-47
2023/03/15 08:00:00;;;;;;;13.85;10.98;;;7.10;71.90;;;;;;5006252;28;20511;-48
2023/03/15 08:02:37;;;;;;;14.93;10.65;;;7.20;71.90;;;;;;5010788;28;20585;-47
2023/03/15 08:05:05;;;;;;;15.07;10.93;;;7.20;72.10;;;;;;5006936;28;20042;-47
2023/03/15 08:07:34;;;;;;;16.98;10.95;;;7.20;72.40;;;;;;5004298;28;20544;-47
2023/03/15 08:10:05;;;;;;;15.00;10.45;;;7.20;72.40;;;;;;5006114;28;20112;-50
2023/03/15 08:12:34;;;;;;;13.55;11.60;;;7.20;72.50;;;;;;4987014;28;20141;-46
2023/03/15 08:15:03;;;;;;;11.88;9.82;;;7.30;72.50;;;;;;5006688;28;20049;-48
2023/03/15 08:17:31;;;;;;;12.65;9.82;;;7.40;72.40;;;;;;5004703;28;20046;-50
2023/03/15 08:19:57;;;;;;;12.23;9.57;;;7.40;72.30;;;;;;5008501;28;20041;-46
2023/03/15 08:22:46;;;;;;;12.27;9.57;;;7.50;72.20;;;;;;4989597;28;20148;-51
2023/03/15 08:25:21;;;;;;;11.57;9.40;;;7.50;72.30;;;;;;5005574;28;20057;-49
2023/03/15 08:27:48;;;;;;;;;;;7.60;72.40;;;;;;5003424;28;20070;-48
2023/03/15 08:30:18;;;;;;;9.50;7.57;;;7.70;72.80;;;;;;5005677;28;19921;-47
2023/03/15 08:32:46;;;;;;;11.18;8.15;;;7.70;71.80;;;;;;5008684;28;20148;-48
2023/03/15 08:35:16;;;;;;;12.63;8.63;;;7.70;71.50;;;;;;5011098;28;20089;-46
2023/03/15 08:37:46;;;;;;;14.55;8.80;;;7.80;71.50;;;;;;5008557;28;20034;-50
2023/03/15 08:40:25;;;;;;;11.98;7.97;;;7.90;72.00;;;;;;5014334;28;20115;-46
2023/03/15 08:42:55;;;;;;;13.32;7.90;;;7.90;72.00;;;;;;5010936;28;20049;-49
2023/03/15 08:45:26;;;;;;;10.13;7.88;;;8.00;71.60;;;;;;5008987;28;20157;-48
2023/03/15 08:47:55;;;;;;;12.05;8.40;;;8.10;71.50;;;;;;5011140;28;20044;-47
2023/03/15 08:50:23;;;;;;;9.95;7.05;;;8.20;71.40;;;;;;5003192;28;20166;-47
2023/03/15 08:52:53;;;;;;;9.88;7.70;;;8.30;71.30;;;;;;5007779;28;20038;-48
2023/03/15 08:55:22;;;;;;;12.50;8.40;;;8.30;71.00;;;;;;4995452;28;20045;-47
2023/03/15 08:57:54;;;;;;;10.90;7.57;;;8.40;71.00;;;;;;5008101;28;20033;-49
2023/03/15 09:00:23;;;;;;;10.52;7.45;;;8.40;70.70;;;;;;5005738;28;20045;-47
2023/03/15 09:02:50;;;;;;;9.63;7.07;;;8.50;70.20;;;;;;5010977;28;20062;-46
2023/03/15 09:05:18;;;;;;;8.70;6.60;;;8.50;69.60;;;;;;5005390;28;20088;-48
2023/03/15 09:07:47;;;;;;;10.10;6.65;;;8.50;69.30;;;;;;5007653;28;20049;-51
2023/03/15 09:10:20;;;;;;;7.53;5.85;;;8.50;69.20;;;;;;5018482;28;20049;-48
2023/03/15 09:12:52;;;;;;;8.65;6.20;;;8.60;69.10;;;;;;5012312;28;20054;-47
2023/03/15 09:15:20;;;;;;;9.45;6.25;;;8.60;68.70;;;;;;4996501;28;20047;-50
2023/03/15 09:17:55;;;;;;;9.32;6.72;;;8.50;68.20;;;;;;5018546;28;20058;-47
2023/03/15 09:20:27;;;;;;;10.65;7.63;;;8.50;68.20;;;;;;5014057;28;20045;-49
2023/03/15 09:22:55;;;;;;;8.93;6.65;;;8.50;68.20;;;;;;5012592;28;20042;-50
2023/03/15 09:25:23;;;;;;;9.57;7.43;;;8.50;68.60;;;;;;5031061;28;20116;-52
2023/03/15 09:27:50;;;;;;;9.70;6.05;;;8.50;68.80;;;;;;5030589;28;20033;-51
2023/03/15 09:30:18;;;;;;;9.23;5.85;;;8.60;69.20;;;;;;5009474;28;20069;-48
2023/03/15 09:32:45;;;;;;;10.70;5.70;;;8.60;69.40;;;;;;5024443;28;20044;-51
2023/03/15 09:35:18;;;;;;;5.50;4.60;;;8.70;69.10;;;;;;5030933;28;20044;-51
2023/03/15 09:37:49;;;;;;;7.40;4.65;;;8.80;68.30;;;;;;5017331;28;20072;-52
2023/03/15 09:40:31;;;;;;;9.10;4.82;;;8.90;68.40;;;;;;5015088;28;20077;-49
2023/03/15 09:43:07;;;;;;;6.95;4.43;;;9.00;67.60;;;;;;5017897;28;20041;-52
2023/03/15 09:45:57;;;;;;;7.40;5.05;;;9.10;67.60;;;;;;5016512;28;20049;-51
2023/03/15 09:48:31;;;;;;;7.20;4.38;;;9.20;67.00;;;;;;5004522;28;20034;-48
2023/03/15 09:51:22;;;;;;;8.80;5.15;;;9.20;66.70;;;;;;5007574;28;20569;-51
2023/03/15 09:54:00;;;;;;;5.85;4.13;;;9.30;66.20;;;;;;5005400;28;20487;-48
2023/03/15 09:56:32;;;;;;;7.57;4.22;;;9.40;65.80;;;;;;5013493;28;20052;-51
2023/03/15 09:59:00;;;;;;;7.80;3.95;;;9.50;66.10;;;;;;5018464;28;20495;-49
2023/03/15 10:01:36;;;;;;;5.90;3.60;;;9.60;65.90;;;;;;5006495;28;20073;-47
2023/03/15 10:04:15;;;;;;;4.93;2.97;;;9.60;64.60;;;;;;5021580;28;20046;-48
2023/03/15 10:06:50;;;;;;;9.43;3.88;;;9.70;65.20;;;;;;5015915;28;20034;-47
2023/03/15 10:09:22;;;;;;;3.55;3.10;;;9.70;64.50;;;;;;5013916;28;20053;-51
2023/03/15 10:12:07;;;;;;;7.93;3.73;;;9.70;64.40;;;;;;5022273;28;20464;-49
2023/03/15 10:15:05;;;;;;;7.80;3.63;;;9.80;64.40;;;;;;5005400;28;20285;-48
2023/03/15 10:17:44;;;;;;;6.25;3.05;;;9.80;63.00;;;;;;5007266;28;20041;-51
2023/03/15 10:20:19;;;;;;;9.43;3.53;;;9.90;63.40;;;;;;5012702;28;20049;-51
2023/03/15 10:22:59;;;;;;;5.60;2.40;;;9.90;64.00;;;;;;4992897;28;20144;-51
2023/03/15 10:25:30;;;;;;;5.88;2.47;;;10.00;63.30;;;;;;5029747;28;20080;-51
2023/03/15 10:28:08;;;;;;;4.03;2.25;;;10.10;63.40;;;;;;5015909;28;20060;-50
2023/03/15 10:30:37;;;;;;;2.85;1.90;;;10.10;63.00;;;;;;5016333;28;20034;-51
2023/03/15 10:33:33;;;;;;;3.45;2.30;;;10.20;62.40;;;;;;5028747;28;20482;-45
2023/03/15 10:36:03;;;;;;;3.83;1.83;;;10.30;61.30;;;;;;5025565;28;20522;-50
2023/03/15 10:38:40;;;;;;;4.22;2.35;;;10.40;62.40;;;;;;5007906;28;20142;-48
2023/03/15 10:41:26;;;;;;;4.90;2.20;;;10.50;61.70;;;;;;5026990;28;20052;-52
2023/03/15 10:44:01;;;;;;;3.95;1.83;;;10.50;61.30;;;;;;5029137;28;20560;-50
2023/03/15 10:46:28;;;;;;;3.60;1.95;;;10.60;61.20;;;;;;5020586;28;20042;-47
2023/03/15 10:49:12;;;;;;;4.95;2.15;;;10.60;61.10;;;;;;5019478;28;20049;-48
2023/03/15 10:51:44;;;;;;;3.60;1.48;;;10.70;59.30;;;;;;5014709;28;20045;-51
2023/03/15 10:54:17;;;;;;;2.97;1.90;;;10.80;60.50;;;;;;5021936;28;20037;-51
2023/03/15 10:56:49;;;;;;;5.53;2.13;;;10.90;60.10;;;;;;5028701;28;20045;-47
2023/03/15 10:59:25;;;;;;;2.90;2.17;;;10.90;60.10;;;;;;5029079;28;20053;-51
2023/03/15 11:02:15;;;;;;;3.15;1.58;;;11.00;59.70;;;;;;5010102;28;20050;-51
2023/03/15 11:04:57;;;;;;;4.25;1.60;;;11.10;58.30;;;;;;5022420;28;20041;-48
2023/03/15 11:07:32;;;;;;;3.33;1.40;;;11.20;59.10;;;;;;5028006;28;20065;-46
2023/03/15 11:10:04;;;;;;;6.00;2.00;;;11.20;58.50;;;;;;4995902;28;20117;-50
2023/03/15 11:12:33;;;;;;;8.15;1.77;;;11.30;57.90;;;;;;5022082;28;20036;-51
2023/03/15 11:15:14;;;;;;;5.57;1.40;;;11.30;57.40;;;;;;5024411;28;20053;-50
2023/03/15 11:17:47;;;;;;;1.55;1.20;;;11.30;56.50;;;;;;5005822;28;20137;-51
2023/03/15 11:20:29;;;;;;;4.15;1.88;;;11.30;56.70;;;;;;5028678;28;20050;-50
2023/03/15 11:23:04;;;;;;;3.85;1.52;;;11.30;55.90;;;;;;5010389;28;20038;-51
2023/03/15 11:25:33;;;;;;;5.35;1.40;;;11.30;56.60;;;;;;5017011;28;20757;-47
2023/03/15 11:28:16;;;;;;;1.73;1.30;;;11.30;56.70;;;;;;5032370;28;20091;-51
2023/03/15 11:30:51;;;;;;;4.60;1.95;;;11.30;56.20;;;;;;5016800;28;20037;-48
2023/03/15 11:33:38;;;;;;;3.78;1.60;;;11.30;56.40;;;;;;5016110;28;20034;-48
2023/03/15 11:36:15;;;;;;;4.40;1.73;;;11.30;55.90;;;;;;5010773;28;20403;-51
2023/03/15 11:38:45;;;;;;;3.80;1.65;;;11.30;55.60;;;;;;5014657;28;20068;-51
2023/03/15 11:41:40;;;;;;;5.00;1.70;;;11.30;55.60;;;;;;5012556;28;20380;-47
2023/03/15 11:44:33;;;;;;;2.22;1.10;;;11.30;54.80;;;;;;5002423;28;20046;-48
2023/03/15 11:47:15;;;;;;;2.17;1.10;;;11.30;53.60;;;;;;5015508;28;20422;-48
2023/03/15 11:50:02;;;;;;;1.60;1.30;;;11.30;53.70;;;;;;5011378;28;20049;-48
2023/03/15 11:52:32;;;;;;;2.78;1.60;;;11.20;53.20;;;;;;5012317;28;20076;-49
2023/03/15 11:55:02;;;;;;;3.75;1.27;;;11.20;54.60;;;;;;5015452;28;20045;-50
2023/03/15 11:57:43;;;;;;;4.78;1.40;;;11.10;54.90;;;;;;5013644;28;20042;-51
2023/03/15 12:00:35;;;;;;;4.82;2.17;;;11.00;53.40;;;;;;5008831;28;20053;-48
2023/03/15 12:03:28;;;;;;;3.10;1.67;;;11.00;53.40;;;;;;5001935;28;20076;-48
2023/03/15 12:06:06;;;;;;;3.38;1.95;;;11.00;52.90;;;;;;5011951;28;20038;-48
2023/03/15 12:08:35;;;;;;;3.13;2.05;;;10.90;54.90;;;;;;5005784;28;20042;-48
2023/03/15 12:11:33;;;;;;;4.50;2.25;;;10.90;54.60;;;;;;5013255;28;20038;-47
2023/03/15 12:14:21;;;;;;;5.65;2.47;;;10.90;54.30;;;;;;5008942;28;20119;-50
2023/03/15 12:16:51;;;;;;;4.75;2.40;;;10.90;54.20;;;;;;5013261;28;20088;-52
2023/03/15 12:19:22;;;;;;;4.47;2.78;;;10.90;55.00;;;;;;5026580;28;20060;-50
2023/03/15 12:21:55;;;;;;;5.47;3.30;;;10.90;54.80;;;;;;5015258;28;20041;-47
2023/03/15 12:24:37;;;;;;;6.35;2.95;;;10.90;54.90;;;;;;5024500;28;20045;-48
2023/03/15 12:27:13;;;;;;;4.35;2.50;;;11.00;53.40;;;;;;5028756;28;20041;-48
2023/03/15 12:29:45;;;;;;;3.40;2.03;;;11.00;54.70;;;;;;5016919;28;20407;-48
2023/03/15 12:32:20;;;;;;;5.80;3.33;;;11.10;54.60;;;;;;5033377;23;20050;-48
2023/03/15 12:34:52;;;;;;;4.40;2.47;;;11.10;54.50;;;;;;5012876;28;20498;-49
2023/03/15 12:37:24;;;;;;;4.10;2.38;;;11.10;54.20;;;;;;5012578;28;20129;-50
2023/03/15 12:40:19;;;;;;;5.03;2.53;;;11.20;54.10;;;;;;5010342;28;20372;-45
2023/03/15 12:42:45;;;;;;;3.42;2.45;;;11.30;53.90;;;;;;5005696;28;20130;-46
2023/03/15 12:45:36;;;;;;;4.82;2.45;;;11.30;54.10;;;;;;5012500;28;20184;-48
2023/03/15 12:48:11;;;;;;;3.42;1.63;;;11.40;53.20;;;;;;5012508;28;20049;-51
2023/03/15 12:50:44;;;;;;;4.05;1.65;;;11.40;53.20;;;;;;5004514;28;20064;-47
2023/03/15 12:53:26;;;;;;;3.85;2.00;;;11.50;52.50;;;;;;5009557;28;20041;-52
2023/03/15 12:56:09;;;;;;;4.68;2.40;;;11.50;53.30;;;;;;5012626;28;20034;-49
2023/03/15 12:58:42;;;;;;;5.65;2.63;;;11.60;53.20;;;;;;5004471;28;20083;-48
2023/03/15 13:01:15;;;;;;;2.95;1.80;;;11.70;53.30;;;;;;5003537;28;20502;-46
2023/03/15 13:03:52;;;;;;;2.85;2.35;;;11.80;53.20;;;;;;5007350;28;20449;-50
2023/03/15 13:06:49;;;;;;;3.28;2.03;;;11.80;53.20;;;;;;5008841;28;20042;-50
2023/03/15 13:09:52;;;;;;;3.05;1.70;;;11.90;52.60;;;;;;5006019;28;20043;-49
2023/03/15 13:12:43;;;;;;;5.20;1.80;;;12.10;52.10;;;;;;5011286;28;20041;-51
2023/03/15 13:15:15;;;;;;;3.17;1.52;;;12.20;52.50;;;;;;5000025;28;20058;-50
2023/03/15 13:17:50;;;;;;;4.35;1.60;;;12.30;52.70;;;;;;4995636;28;20653;-50
2023/03/15 13:21:01;;;;;;;2.10;1.77;;;12.40;52.80;;;;;;5005021;28;20092;-46
2023/03/15 13:23:31;;;;;;;4.43;1.60;;;12.50;51.10;;;;;;5003419;28;20042;-49
2023/03/15 13:26:20;;;;;;;2.35;1.67;;;12.50;52.70;;;;;;5000986;28;20124;-47
2023/03/15 13:28:51;;;;;;;2.88;1.58;;;12.60;52.00;;;;;;5004286;28;20066;-49
2023/03/15 13:31:26;;;;;;;3.45;1.48;;;12.60;51.40;;;;;;5002749;28;20065;-49
2023/03/15 13:34:22;;;;;;;2.65;1.38;;;12.70;50.50;;;;;;5011728;28;20084;-48